sensor_id;sensor_type;location;lat;lon;timestamp;P1;durP1;ratioP1;P2;durP2;ratioP2
43540;SDS011;29549;40.386;-3.710;2022-10-30T00:04:17;10.07;;;5.30;;
43540;SDS011;29549;40.386;-3.710;2022-10-30T00:14:19;12.88;;;6.78;;
43540;SDS011;29549;40.386;-3.710;2022-10-30T00:24:22;10.17;;;5.87;;
43540;SDS011;29549;40.386;-3.710;2022-10-30T00:34:24;12.18;;;5.38;;
43540;SDS011;29549;40.386;-3.710;2022-10-30T00:44:30;13.88;;;5.20;;
43540;SDS011;29549;40.386;-3.710;2022-10-30T00:54:32;10.23;;;4.97;;
43540;SDS011;29549;40.386;-3.710;2022-10-30T01:04:35;10.13;;;5.75;;
43540;SDS011;29549;40.386;-3.710;2022-10-30T01:14:41;10.77;;;5.72;;
43540;SDS011;29549;40.386;-3.710;2022-10-30T01:35:33;9.32;;;5.32;;
43540;SDS011;29549;40.386;-3.710;2022-10-30T02:17:31;15.52;;;6.68;;
43540;SDS011;29549;40.386;-3.710;2022-10-30T02:27:41;12.20;;;5.88;;
43540;SDS011;29549;40.386;-3.710;2022-10-30T02:38:02;13.57;;;6.40;;
43540;SDS011;29549;40.386;-3.710;2022-10-30T02:48:23;13.10;;;5.28;;
43540;SDS011;29549;40.386;-3.710;2022-10-30T02:58:41;8.75;;;5.65;;
43540;SDS011;29549;40.386;-3.710;2022-10-30T03:08:55;10.27;;;4.87;;
43540;SDS011;29549;40.386;-3.710;2022-10-30T03:19:16;10.13;;;5.47;;
43540;SDS011;29549;40.386;-3.710;2022-10-30T03:29:26;13.20;;;6.55;;
43540;SDS011;29549;40.386;-3.710;2022-10-30T03:39:35;10.30;;;5.50;;
43540;SDS011;29549;40.386;-3.710;2022-10-30T03:49:39;9.43;;;5.50;;
43540;SDS011;29549;40.386;-3.710;2022-10-30T03:59:43;9.35;;;5.15;;
43540;SDS011;29549;40.386;-3.710;2022-10-30T04:09:48;10.05;;;6.05;;
43540;SDS011;29549;40.386;-3.710;2022-10-30T04:19:56;9.10;;;5.63;;
43540;SDS011;29549;40.386;-3.710;2022-10-30T04:30:00;8.60;;;5.65;;
43540;SDS011;29549;40.386;-3.710;2022-10-30T04:40:06;10.57;;;5.68;;
43540;SDS011;29549;40.386;-3.710;2022-10-30T04:50:28;12.00;;;6.05;;
43540;SDS011;29549;40.386;-3.710;2022-10-30T05:00:30;10.05;;;6.72;;
43540;SDS011;29549;40.386;-3.710;2022-10-30T05:10:32;11.80;;;6.35;;
43540;SDS011;29549;40.386;-3.710;2022-10-30T05:20:34;9.90;;;6.00;;
43540;SDS011;29549;40.386;-3.710;2022-10-30T05:30:36;8.60;;;5.80;;
43540;SDS011;29549;40.386;-3.710;2022-10-30T05:40:39;12.55;;;5.93;;
43540;SDS011;29549;40.386;-3.710;2022-10-30T05:50:41;12.32;;;6.65;;
43540;SDS011;29549;40.386;-3.710;2022-10-30T06:00:44;9.38;;;6.20;;
43540;SDS011;29549;40.386;-3.710;2022-10-30T06:10:46;10.05;;;5.93;;
43540;SDS011;29549;40.386;-3.710;2022-10-30T06:20:48;16.25;;;6.80;;
43540;SDS011;29549;40.386;-3.710;2022-10-30T06:30:52;10.70;;;6.35;;
43540;SDS011;29549;40.386;-3.710;2022-10-30T06:40:54;11.30;;;6.18;;
43540;SDS011;29549;40.386;-3.710;2022-10-30T06:50:56;12.85;;;6.65;;
43540;SDS011;29549;40.386;-3.710;2022-10-30T07:01:00;12.23;;;7.05;;
43540;SDS011;29549;40.386;-3.710;2022-10-30T07:11:03;15.80;;;7.07;;
43540;SDS011;29549;40.386;-3.710;2022-10-30T07:21:06;10.48;;;6.75;;
43540;SDS011;29549;40.386;-3.710;2022-10-30T07:31:08;9.57;;;7.07;;
43540;SDS011;29549;40.386;-3.710;2022-10-30T07:41:10;12.90;;;6.72;;
43540;SDS011;29549;40.386;-3.710;2022-10-30T07:51:12;12.05;;;6.90;;
43540;SDS011;29549;40.386;-3.710;2022-10-30T08:01:15;14.57;;;7.90;;
43540;SDS011;29549;40.386;-3.710;2022-10-30T08:11:17;17.85;;;7.50;;
43540;SDS011;29549;40.386;-3.710;2022-10-30T08:21:19;16.23;;;8.48;;
43540;SDS011;29549;40.386;-3.710;2022-10-30T08:31:21;11.68;;;8.10;;
43540;SDS011;29549;40.386;-3.710;2022-10-30T08:41:23;13.82;;;8.02;;
43540;SDS011;29549;40.386;-3.710;2022-10-30T08:51:25;13.73;;;8.05;;
43540;SDS011;29549;40.386;-3.710;2022-10-30T09:01:26;15.80;;;8.35;;
43540;SDS011;29549;40.386;-3.710;2022-10-30T09:11:28;15.02;;;7.00;;
43540;SDS011;29549;40.386;-3.710;2022-10-30T09:21:31;12.27;;;7.43;;
43540;SDS011;29549;40.386;-3.710;2022-10-30T09:31:34;12.60;;;7.40;;
43540;SDS011;29549;40.386;-3.710;2022-10-30T09:52:12;12.70;;;7.97;;
43540;SDS011;29549;40.386;-3.710;2022-10-30T10:13:00;13.57;;;8.43;;
43540;SDS011;29549;40.386;-3.710;2022-10-30T10:23:49;76.65;;;15.48;;
43540;SDS011;29549;40.386;-3.710;2022-10-30T10:54:18;12.55;;;9.25;;
43540;SDS011;29549;40.386;-3.710;2022-10-30T11:04:38;14.30;;;9.85;;
43540;SDS011;29549;40.386;-3.710;2022-10-30T11:14:43;24.67;;;15.88;;
43540;SDS011;29549;40.386;-3.710;2022-10-30T11:24:47;15.88;;;10.20;;
43540;SDS011;29549;40.386;-3.710;2022-10-30T11:45:14;15.23;;;10.20;;
43540;SDS011;29549;40.386;-3.710;2022-10-30T11:55:34;16.05;;;11.07;;
43540;SDS011;29549;40.386;-3.710;2022-10-30T12:05:40;16.70;;;10.50;;
43540;SDS011;29549;40.386;-3.710;2022-10-30T12:15:42;13.98;;;10.82;;
43540;SDS011;29549;40.386;-3.710;2022-10-30T12:25:50;16.42;;;11.55;;
43540;SDS011;29549;40.386;-3.710;2022-10-30T12:35:57;16.00;;;10.95;;
43540;SDS011;29549;40.386;-3.710;2022-10-30T12:56:17;14.50;;;11.27;;
43540;SDS011;29549;40.386;-3.710;2022-10-30T13:06:41;18.95;;;12.27;;
43540;SDS011;29549;40.386;-3.710;2022-10-30T13:16:52;16.33;;;11.73;;
43540;SDS011;29549;40.386;-3.710;2022-10-30T13:26:58;17.38;;;10.75;;
43540;SDS011;29549;40.386;-3.710;2022-10-30T13:58:21;24.95;;;14.07;;
43540;SDS011;29549;40.386;-3.710;2022-10-30T14:19:04;22.10;;;15.85;;
43540;SDS011;29549;40.386;-3.710;2022-10-30T14:29:42;34.22;;;13.45;;
43540;SDS011;29549;40.386;-3.710;2022-10-30T14:39:44;16.40;;;12.45;;
43540;SDS011;29549;40.386;-3.710;2022-10-30T15:00:48;18.23;;;12.57;;
43540;SDS011;29549;40.386;-3.710;2022-10-30T15:20:30;19.70;;;12.80;;
43540;SDS011;29549;40.386;-3.710;2022-10-30T15:30:34;19.35;;;13.02;;
43540;SDS011;29549;40.386;-3.710;2022-10-30T15:40:36;18.48;;;11.25;;
43540;SDS011;29549;40.386;-3.710;2022-10-30T15:50:40;19.38;;;12.13;;
43540;SDS011;29549;40.386;-3.710;2022-10-30T16:00:58;18.92;;;12.13;;
43540;SDS011;29549;40.386;-3.710;2022-10-30T16:11:02;15.93;;;10.00;;
43540;SDS011;29549;40.386;-3.710;2022-10-30T16:21:06;19.02;;;13.13;;
43540;SDS011;29549;40.386;-3.710;2022-10-30T16:31:10;22.45;;;13.35;;
43540;SDS011;29549;40.386;-3.710;2022-10-30T16:41:17;19.75;;;12.00;;
43540;SDS011;29549;40.386;-3.710;2022-10-30T16:51:20;17.80;;;12.15;;
43540;SDS011;29549;40.386;-3.710;2022-10-30T17:01:24;21.17;;;13.63;;
43540;SDS011;29549;40.386;-3.710;2022-10-30T17:11:40;22.83;;;12.10;;
43540;SDS011;29549;40.386;-3.710;2022-10-30T17:21:49;22.23;;;13.13;;
43540;SDS011;29549;40.386;-3.710;2022-10-30T17:31:52;18.23;;;13.00;;
43540;SDS011;29549;40.386;-3.710;2022-10-30T17:41:58;17.17;;;11.65;;
43540;SDS011;29549;40.386;-3.710;2022-10-30T17:52:00;19.35;;;11.10;;
43540;SDS011;29549;40.386;-3.710;2022-10-30T18:02:07;19.02;;;11.13;;
43540;SDS011;29549;40.386;-3.710;2022-10-30T18:12:15;16.23;;;10.63;;
43540;SDS011;29549;40.386;-3.710;2022-10-30T18:22:17;17.83;;;10.85;;
43540;SDS011;29549;40.386;-3.710;2022-10-30T18:32:19;18.02;;;11.13;;
43540;SDS011;29549;40.386;-3.710;2022-10-30T18:42:21;20.58;;;11.85;;
43540;SDS011;29549;40.386;-3.710;2022-10-30T18:52:23;22.55;;;14.25;;
43540;SDS011;29549;40.386;-3.710;2022-10-30T19:02:24;18.80;;;12.55;;
43540;SDS011;29549;40.386;-3.710;2022-10-30T19:12:26;16.17;;;10.48;;
43540;SDS011;29549;40.386;-3.710;2022-10-30T19:22:27;17.25;;;11.27;;
43540;SDS011;29549;40.386;-3.710;2022-10-30T19:32:30;15.85;;;10.63;;
43540;SDS011;29549;40.386;-3.710;2022-10-30T19:42:31;29.92;;;9.65;;
43540;SDS011;29549;40.386;-3.710;2022-10-30T19:52:33;15.88;;;10.70;;
43540;SDS011;29549;40.386;-3.710;2022-10-30T20:02:36;16.30;;;10.57;;
43540;SDS011;29549;40.386;-3.710;2022-10-30T20:12:37;17.83;;;11.70;;
43540;SDS011;29549;40.386;-3.710;2022-10-30T20:22:39;16.95;;;10.60;;
43540;SDS011;29549;40.386;-3.710;2022-10-30T20:32:41;15.82;;;10.45;;
43540;SDS011;29549;40.386;-3.710;2022-10-30T20:42:43;14.55;;;10.80;;
43540;SDS011;29549;40.386;-3.710;2022-10-30T20:52:45;14.27;;;9.80;;
43540;SDS011;29549;40.386;-3.710;2022-10-30T21:02:48;15.00;;;10.48;;
43540;SDS011;29549;40.386;-3.710;2022-10-30T21:12:49;15.57;;;12.20;;
43540;SDS011;29549;40.386;-3.710;2022-10-30T21:22:51;14.88;;;10.82;;
43540;SDS011;29549;40.386;-3.710;2022-10-30T21:32:53;11.90;;;9.32;;
43540;SDS011;29549;40.386;-3.710;2022-10-30T21:42:55;15.57;;;10.70;;
43540;SDS011;29549;40.386;-3.710;2022-10-30T21:52:56;14.88;;;11.00;;
43540;SDS011;29549;40.386;-3.710;2022-10-30T22:02:59;16.85;;;11.07;;
43540;SDS011;29549;40.386;-3.710;2022-10-30T22:13:00;17.88;;;11.50;;
43540;SDS011;29549;40.386;-3.710;2022-10-30T22:23:01;16.40;;;10.80;;
43540;SDS011;29549;40.386;-3.710;2022-10-30T22:33:03;14.35;;;9.18;;
43540;SDS011;29549;40.386;-3.710;2022-10-30T22:43:05;17.85;;;11.68;;
43540;SDS011;29549;40.386;-3.710;2022-10-30T22:53:06;14.82;;;10.77;;
43540;SDS011;29549;40.386;-3.710;2022-10-30T23:03:08;14.98;;;10.13;;
43540;SDS011;29549;40.386;-3.710;2022-10-30T23:13:10;15.27;;;10.07;;
43540;SDS011;29549;40.386;-3.710;2022-10-30T23:23:11;16.10;;;11.27;;
43540;SDS011;29549;40.386;-3.710;2022-10-30T23:33:13;14.70;;;11.38;;
43540;SDS011;29549;40.386;-3.710;2022-10-30T23:43:15;15.07;;;11.18;;
43540;SDS011;29549;40.386;-3.710;2022-10-30T23:53:17;20.20;;;13.57;;
